Time;durP1;ratioP1;P1;durP2;ratioP2;P2;SDS_P1;SDS_P2;PMS_P1;PMS_P2;Temp;Humidity;BMP_temperature;BMP_pressure;BME280_temperature;BME280_humidity;BME280_pressure;Samples;Min_cycle;Max_cycle;Signal;HPM_P1;HPM_P2
2023/10/20 00:01:23;;;;;;;8.97;6.57;;;;;;;;;;5062113;28;20535;-80
2023/10/20 00:03:50;;;;;;;8.77;6.40;;;;;;;;;;5055496;28;20818;-78
2023/10/20 00:06:20;;;;;;;8.27;6.17;;;;;;;;;;5065370;28;20462;-79
2023/10/20 00:08:48;;;;;;;7.47;6.23;;;;;;;;;;5045008;28;20515;-80
2023/10/20 00:11:16;;;;;;;7.93;5.50;;;;;;;;;;5046305;28;20574;-79
2023/10/20 00:13:43;;;;;;;8.70;6.30;;;;;;;;;;5045413;28;20482;-79
2023/10/20 00:16:11;;;;;;;8.60;5.80;;;;;;;;;;5045421;28;20766;-79
2023/10/20 00:18:38;;;;;;;8.37;6.27;;;;;;;;;;5045108;28;20461;-79
2023/10/20 00:21:05;;;;;;;8.03;6.00;;;;;;;;;;5066394;28;20457;-79
2023/10/20 00:23:34;;;;;;;7.57;6.50;;;;;;;;;;5067386;28;20854;-78
2023/10/20 00:29:06;;;;;;;7.30;5.90;;;;;;;;;;5063022;28;20475;-78
2023/10/20 00:31:34;;;;;;;8.83;6.30;;;;;;;;;;5063512;28;20740;-79
2023/10/20 00:34:01;;;;;;;9.07;6.30;;;;;;;;;;5062909;28;20452;-80
2023/10/20 00:36:29;;;;;;;8.60;6.50;;;;;;;;;;5061749;28;20496;-82
2023/10/20 00:38:58;;;;;;;8.20;5.77;;;;;;;;;;5063832;28;20463;-80
2023/10/20 00:41:25;;;;;;;7.43;5.80;;;;;;;;;;5061263;28;20565;-78
2023/10/20 00:43:53;;;;;;;8.90;5.90;;;;;;;;;;5060002;28;20457;-80
2023/10/20 00:46:20;;;;;;;6.37;4.93;;;;;;;;;;5059248;28;20441;-80
2023/10/20 00:48:48;;;;;;;7.20;4.97;;;;;;;;;;5057010;28;20471;-79
2023/10/20 00:51:15;;;;;;;8.27;6.20;;;;;;;;;;5061168;28;20816;-79
2023/10/20 00:53:43;;;;;;;7.90;5.40;;;;;;;;;;5058771;28;20764;-80
2023/10/20 00:56:12;;;;;;;8.07;5.77;;;;;;;;;;5060789;28;20739;-78
2023/10/20 00:58:39;;;;;;;8.17;6.23;;;;;;;;;;5060067;28;20468;-79
2023/10/20 01:01:07;;;;;;;7.53;5.80;;;;;;;;;;5061206;28;20473;-79
2023/10/20 01:03:35;;;;;;;7.57;5.97;;;;;;;;;;5066607;28;20498;-79
2023/10/20 01:06:05;;;;;;;5.77;4.70;;;;;;;;;;5062942;28;20548;-79
2023/10/20 01:08:32;;;;;;;9.80;5.93;;;;;;;;;;5062264;28;20528;-79
2023/10/20 01:11:00;;;;;;;7.50;5.37;;;;;;;;;;5065425;28;20839;-80
2023/10/20 01:13:29;;;;;;;8.20;6.23;;;;;;;;;;5062436;28;20487;-80
2023/10/20 01:15:57;;;;;;;7.27;5.03;;;;;;;;;;5062977;28;20849;-80
2023/10/20 01:18:25;;;;;;;8.67;6.20;;;;;;;;;;5063774;28;20458;-79
2023/10/20 01:20:52;;;;;;;7.77;5.83;;;;;;;;;;5063458;28;20453;-79
2023/10/20 01:23:20;;;;;;;10.03;6.20;;;;;;;;;;5064388;28;20454;-78
2023/10/20 01:25:50;;;;;;;7.13;5.20;;;;;;;;;;5064561;28;20446;-78
2023/10/20 01:28:19;;;;;;;7.17;5.07;;;;;;;;;;5062911;28;20450;-78
2023/10/20 01:30:46;;;;;;;9.10;5.67;;;;;;;;;;5064542;28;21012;-79
2023/10/20 01:33:13;;;;;;;8.20;5.27;;;;;;;;;;5063283;28;20457;-79
2023/10/20 01:35:44;;;;;;;6.50;4.47;;;;;;;;;;5063533;28;20511;-79
2023/10/20 01:38:11;;;;;;;6.63;5.00;;;;;;;;;;5061085;28;20943;-79
2023/10/20 01:40:39;;;;;;;7.90;5.10;;;;;;;;;;5060385;28;20642;-79
2023/10/20 01:43:08;;;;;;;6.43;4.00;;;;;;;;;;5062866;28;20457;-78
2023/10/20 01:45:35;;;;;;;5.27;3.33;;;;;;;;;;5064161;28;20449;-78
2023/10/20 01:48:03;;;;;;;5.53;3.20;;;;;;;;;;5063486;28;20459;-79
2023/10/20 01:50:30;;;;;;;4.13;2.57;;;;;;;;;;5065657;28;20445;-79
2023/10/20 01:52:58;;;;;;;4.17;2.87;;;;;;;;;;5060778;28;20687;-80
2023/10/20 01:55:26;;;;;;;4.60;2.83;;;;;;;;;;5059897;28;20492;-79
2023/10/20 01:57:54;;;;;;;4.60;2.60;;;;;;;;;;5062880;28;20504;-79
2023/10/20 02:00:23;;;;;;;4.60;2.03;;;;;;;;;;5062175;28;20454;-79
2023/10/20 02:02:51;;;;;;;3.87;2.23;;;;;;;;;;5064103;28;20438;-79
2023/10/20 02:05:18;;;;;;;4.07;2.30;;;;;;;;;;5060369;28;20445;-79
2023/10/20 02:07:45;;;;;;;3.07;1.77;;;;;;;;;;5060336;28;20500;-79
2023/10/20 02:10:15;;;;;;;3.60;1.87;;;;;;;;;;5064915;28;20479;-79
2023/10/20 02:12:42;;;;;;;4.53;2.10;;;;;;;;;;5062437;28;20465;-78
2023/10/20 02:15:10;;;;;;;3.50;2.00;;;;;;;;;;5065621;28;20508;-79
2023/10/20 02:17:39;;;;;;;4.50;1.83;;;;;;;;;;5062118;28;20434;-80
2023/10/20 02:20:07;;;;;;;4.67;2.43;;;;;;;;;;5065187;28;20445;-78
2023/10/20 02:22:35;;;;;;;3.40;1.80;;;;;;;;;;5059405;28;20496;-80
2023/10/20 02:25:02;;;;;;;4.23;2.27;;;;;;;;;;5064826;28;20457;-80
2023/10/20 02:27:31;;;;;;;4.40;2.00;;;;;;;;;;5061862;28;20441;-79
2023/10/20 02:29:59;;;;;;;3.20;1.73;;;;;;;;;;5065422;28;20785;-80
2023/10/20 02:32:26;;;;;;;5.80;2.73;;;;;;;;;;5062443;28;20456;-78
2023/10/20 02:34:55;;;;;;;3.97;2.23;;;;;;;;;;5064988;28;20484;-79
2023/10/20 02:37:23;;;;;;;4.43;2.93;;;;;;;;;;5061846;28;20524;-80
2023/10/20 02:39:50;;;;;;;5.17;2.50;;;;;;;;;;5067178;28;20481;-79
2023/10/20 02:42:18;;;;;;;4.30;2.90;;;;;;;;;;5063585;28;20453;-79
2023/10/20 02:44:45;;;;;;;4.87;3.53;;;;;;;;;;5065960;28;20441;-79
2023/10/20 02:47:12;;;;;;;4.47;3.20;;;;;;;;;;5067694;28;20447;-79
2023/10/20 02:49:40;;;;;;;3.47;2.40;;;;;;;;;;5067183;28;20531;-79
2023/10/20 02:52:13;;;;;;;5.20;2.60;;;;;;;;;;5065937;28;20465;-79
2023/10/20 02:54:40;;;;;;;4.60;2.87;;;;;;;;;;5063473;28;20467;-80
2023/10/20 02:57:07;;;;;;;5.13;2.37;;;;;;;;;;5063802;28;20495;-80
2023/10/20 02:59:35;;;;;;;4.40;2.83;;;;;;;;;;5064043;28;20499;-78
2023/10/20 03:02:02;;;;;;;4.60;2.60;;;;;;;;;;5063796;28;20445;-79
2023/10/20 03:04:30;;;;;;;7.20;2.77;;;;;;;;;;5062860;28;20511;-78
2023/10/20 03:06:57;;;;;;;4.30;2.43;;;;;;;;;;5062271;28;20516;-79
2023/10/20 03:09:26;;;;;;;4.97;3.00;;;;;;;;;;5062826;28;20564;-79
2023/10/20 03:11:54;;;;;;;5.07;3.13;;;;;;;;;;5064345;28;20445;-79
2023/10/20 03:14:22;;;;;;;4.17;2.73;;;;;;;;;;5067051;28;20464;-80
2023/10/20 03:16:49;;;;;;;5.50;2.90;;;;;;;;;;5063793;28;20497;-78
2023/10/20 03:19:16;;;;;;;4.93;3.07;;;;;;;;;;5066053;28;20464;-77
2023/10/20 03:21:44;;;;;;;4.27;2.80;;;;;;;;;;5064048;28;20489;-79
2023/10/20 03:24:11;;;;;;;5.23;3.50;;;;;;;;;;5065372;28;20908;-79
2023/10/20 03:26:41;;;;;;;5.50;3.27;;;;;;;;;;5062894;28;20893;-79
2023/10/20 03:29:09;;;;;;;5.27;3.20;;;;;;;;;;5061061;28;20481;-80
2023/10/20 03:31:37;;;;;;;4.60;2.80;;;;;;;;;;5059680;28;20750;-79
2023/10/20 03:34:05;;;;;;;7.23;2.80;;;;;;;;;;5059233;28;20469;-81
2023/10/20 03:36:32;;;;;;;5.57;3.00;;;;;;;;;;5057962;28;20508;-79
2023/10/20 03:39:00;;;;;;;8.30;3.47;;;;;;;;;;5060030;28;20948;-80
2023/10/20 03:41:29;;;;;;;5.23;2.80;;;;;;;;;;5059219;28;20458;-79
2023/10/20 03:43:58;;;;;;;5.83;2.93;;;;;;;;;;5060544;28;20584;-77
2023/10/20 03:46:26;;;;;;;4.83;2.63;;;;;;;;;;5059193;28;20569;-78
2023/10/20 03:48:54;;;;;;;5.17;3.00;;;;;;;;;;5051715;28;20458;-78
2023/10/20 03:51:21;;;;;;;6.37;3.20;;;;;;;;;;5059410;28;20453;-80
2023/10/20 03:53:52;;;;;;;7.00;3.67;;;;;;;;;;5061129;28;20566;-80
2023/10/20 03:56:22;;;;;;;4.80;3.10;;;;;;;;;;5059330;28;20481;-79
2023/10/20 03:58:49;;;;;;;6.30;3.30;;;;;;;;;;5064182;28;20465;-79
2023/10/20 04:01:18;;;;;;;6.70;3.33;;;;;;;;;;5060842;28;20899;-78
2023/10/20 04:03:50;;;;;;;8.53;3.70;;;;;;;;;;5060970;28;20445;-78
2023/10/20 04:06:18;;;;;;;5.73;3.73;;;;;;;;;;5060336;28;20850;-79
2023/10/20 04:08:46;;;;;;;5.00;3.20;;;;;;;;;;5058481;28;20531;-79
2023/10/20 04:11:13;;;;;;;6.20;3.63;;;;;;;;;;5062580;28;20473;-78
2023/10/20 04:13:41;;;;;;;5.63;3.13;;;;;;;;;;5062995;28;20464;-79
2023/10/20 04:16:17;;;;;;;5.40;3.30;;;;;;;;;;5058333;28;20583;-78
2023/10/20 04:18:46;;;;;;;4.90;2.70;;;;;;;;;;5059306;28;20449;-79
2023/10/20 04:21:14;;;;;;;5.70;3.90;;;;;;;;;;5061126;28;20515;-79
2023/10/20 04:23:43;;;;;;;5.27;3.93;;;;;;;;;;5061677;28;20453;-79
2023/10/20 04:26:19;;;;;;;5.17;3.27;;;;;;;;;;5061219;28;20560;-81
2023/10/20 04:28:47;;;;;;;5.37;3.20;;;;;;;;;;5061602;28;20452;-78
2023/10/20 04:51:08;;;;;;;5.77;3.70;;;;;;;;;;4943988;29;20517;-79
2023/10/20 04:56:37;;;;;;;6.47;3.00;;;;;;;;;;5057804;28;20466;-77
2023/10/20 04:59:09;;;;;;;6.50;3.20;;;;;;;;;;5058618;28;20461;-80
2023/10/20 05:01:47;;;;;;;5.30;3.40;;;;;;;;;;5061440;28;20455;-79
2023/10/20 05:04:16;;;;;;;6.37;3.77;;;;;;;;;;5059457;28;20445;-79
2023/10/20 05:06:54;;;;;;;4.67;3.33;;;;;;;;;;5060447;28;20507;-79
2023/10/20 05:09:25;;;;;;;4.97;3.20;;;;;;;;;;5062776;28;20461;-78
2023/10/20 05:11:52;;;;;;;5.00;2.90;;;;;;;;;;5060239;28;20870;-80
2023/10/20 05:14:21;;;;;;;4.50;3.07;;;;;;;;;;5060731;28;20457;-79
2023/10/20 05:16:48;;;;;;;4.40;2.83;;;;;;;;;;5060499;28;20811;-79
2023/10/20 05:19:16;;;;;;;4.93;3.20;;;;;;;;;;5059692;28;20465;-78
2023/10/20 05:21:45;;;;;;;4.43;2.60;;;;;;;;;;5062147;28;20929;-78
2023/10/20 05:24:12;;;;;;;4.73;2.57;;;;;;;;;;5060218;28;20496;-79
2023/10/20 05:26:40;;;;;;;4.27;2.50;;;;;;;;;;5059900;28;20517;-79
2023/10/20 05:29:08;;;;;;;5.90;3.80;;;;;;;;;;5058809;28;20556;-79
2023/10/20 05:31:36;;;;;;;5.10;3.37;;;;;;;;;;5062566;28;20453;-78
2023/10/20 05:34:03;;;;;;;4.53;2.80;;;;;;;;;;5058015;28;20745;-77
2023/10/20 05:36:31;;;;;;;4.13;2.30;;;;;;;;;;5056631;28;20555;-78
2023/10/20 05:39:00;;;;;;;4.87;3.20;;;;;;;;;;5058078;28;20492;-78
2023/10/20 05:41:29;;;;;;;5.23;3.30;;;;;;;;;;5058970;28;20467;-78
2023/10/20 05:43:57;;;;;;;4.40;2.63;;;;;;;;;;5055171;28;20544;-78
2023/10/20 05:46:24;;;;;;;4.70;2.30;;;;;;;;;;5059916;28;20452;-78
2023/10/20 05:48:52;;;;;;;4.70;2.83;;;;;;;;;;5059183;28;20518;-78
2023/10/20 05:51:21;;;;;;;4.50;2.90;;;;;;;;;;5059981;28;20477;-78
2023/10/20 05:53:48;;;;;;;5.20;2.37;;;;;;;;;;5062386;28;20537;-79
2023/10/20 05:56:17;;;;;;;9.00;2.90;;;;;;;;;;5060220;28;20824;-79
2023/10/20 05:58:45;;;;;;;4.77;2.30;;;;;;;;;;5060353;28;20525;-78
2023/10/20 06:01:12;;;;;;;4.10;2.33;;;;;;;;;;5061718;28;20449;-79
2023/10/20 06:03:40;;;;;;;4.27;2.20;;;;;;;;;;5060033;28;20457;-78
2023/10/20 06:06:07;;;;;;;4.07;2.27;;;;;;;;;;5058355;28;20473;-79
2023/10/20 06:08:35;;;;;;;3.20;1.80;;;;;;;;;;5060019;28;20453;-78
2023/10/20 06:11:06;;;;;;;3.37;2.13;;;;;;;;;;5063080;28;20476;-79
2023/10/20 06:13:35;;;;;;;3.97;2.13;;;;;;;;;;5061943;28;20570;-79
2023/10/20 06:16:14;;;;;;;4.27;2.77;;;;;;;;;;5062330;28;20479;-78
2023/10/20 06:18:42;;;;;;;3.53;2.07;;;;;;;;;;5061615;28;20512;-79
2023/10/20 06:21:14;;;;;;;4.30;2.43;;;;;;;;;;5062737;28;20567;-78
2023/10/20 06:23:41;;;;;;;4.13;2.30;;;;;;;;;;5061578;28;20523;-79
2023/10/20 06:26:09;;;;;;;4.30;2.20;;;;;;;;;;5062570;28;20456;-77
2023/10/20 06:28:37;;;;;;;3.60;1.87;;;;;;;;;;5059678;28;20466;-78
2023/10/20 06:31:26;;;;;;;3.80;2.17;;;;;;;;;;5061545;28;20501;-80
2023/10/20 06:34:12;;;;;;;4.03;2.30;;;;;;;;;;5063378;28;20548;-78
2023/10/20 06:36:46;;;;;;;3.97;2.30;;;;;;;;;;5080451;28;20818;-79
2023/10/20 06:39:14;;;;;;;3.80;2.13;;;;;;;;;;5064132;28;20515;-78
2023/10/20 06:41:42;;;;;;;3.20;2.00;;;;;;;;;;5043228;28;20468;-78
2023/10/20 06:44:11;;;;;;;4.07;2.00;;;;;;;;;;5050821;28;20488;-77
2023/10/20 06:46:39;;;;;;;4.17;2.40;;;;;;;;;;5056502;28;20487;-79
2023/10/20 06:49:14;;;;;;;3.03;1.50;;;;;;;;;;5041956;28;20462;-78
2023/10/20 06:52:16;;;;;;;;;;;;;;;;;;;;;
2023/10/20 06:54:56;;;;;;;7.97;4.27;;;;;;;;;;5045301;28;20539;-79
2023/10/20 06:57:24;;;;;;;3.50;1.70;;;;;;;;;;5072044;28;20551;-79
2023/10/20 06:59:55;;;;;;;3.50;1.73;;;;;;;;;;5064003;28;20462;-80
2023/10/20 07:02:32;;;;;;;3.20;1.67;;;;;;;;;;5069342;28;20488;-78
2023/10/20 07:05:13;;;;;;;3.30;1.73;;;;;;;;;;5068308;28;20451;-78
2023/10/20 07:07:49;;;;;;;3.37;1.83;;;;;;;;;;5055944;28;20465;-78
2023/10/20 07:10:18;;;;;;;3.93;1.87;;;;;;;;;;5054033;28;20560;-79
2023/10/20 07:12:45;;;;;;;3.60;1.90;;;;;;;;;;5057030;28;20485;-79
2023/10/20 07:15:17;;;;;;;4.67;1.80;;;;;;;;;;5056806;28;20965;-78
2023/10/20 07:17:47;;;;;;;3.63;1.60;;;;;;;;;;5069028;28;20549;-81
2023/10/20 07:20:18;;;;;;;4.60;2.50;;;;;;;;;;5067840;28;20542;-78
2023/10/20 07:22:45;;;;;;;4.23;1.73;;;;;;;;;;5056861;28;20489;-79
2023/10/20 07:25:16;;;;;;;5.93;2.30;;;;;;;;;;5060910;28;20470;-79
2023/10/20 07:27:45;;;;;;;4.50;2.23;;;;;;;;;;5065274;28;21042;-79
2023/10/20 07:30:16;;;;;;;3.37;1.70;;;;;;;;;;5064034;28;20478;-79
2023/10/20 07:32:46;;;;;;;4.37;2.27;;;;;;;;;;5054498;28;20457;-79
2023/10/20 07:35:15;;;;;;;4.17;1.90;;;;;;;;;;5059912;28;20457;-79
2023/10/20 07:37:43;;;;;;;5.73;2.70;;;;;;;;;;5058159;28;20477;-80
2023/10/20 07:40:11;;;;;;;6.17;3.53;;;;;;;;;;5056525;28;20473;-79
2023/10/20 07:42:40;;;;;;;5.93;3.90;;;;;;;;;;5060183;28;20466;-79
2023/10/20 07:45:08;;;;;;;4.63;3.33;;;;;;;;;;5061193;28;20474;-79
2023/10/20 07:47:36;;;;;;;4.90;2.70;;;;;;;;;;5087454;28;20464;-79
2023/10/20 07:50:17;;;;;;;6.63;2.90;;;;;;;;;;5067889;28;20822;-79
2023/10/20 07:52:47;;;;;;;8.43;3.50;;;;;;;;;;5062814;28;20533;-79
2023/10/20 07:55:18;;;;;;;7.60;2.83;;;;;;;;;;5069887;28;20552;-80
2023/10/20 07:57:46;;;;;;;6.87;2.60;;;;;;;;;;5055445;28;20488;-80
2023/10/20 08:00:18;;;;;;;7.00;3.60;;;;;;;;;;5061988;28;20462;-79
2023/10/20 08:02:48;;;;;;;13.13;4.30;;;;;;;;;;5049884;28;20457;-78
2023/10/20 08:05:17;;;;;;;5.70;4.00;;;;;;;;;;5055838;28;20462;-78
2023/10/20 08:07:45;;;;;;;6.63;3.90;;;;;;;;;;5052549;28;20451;-79
2023/10/20 08:10:21;;;;;;;6.60;4.07;;;;;;;;;;5055751;28;20439;-80
2023/10/20 08:12:51;;;;;;;7.57;4.17;;;;;;;;;;5047215;28;20476;-80
2023/10/20 08:15:27;;;;;;;7.90;4.70;;;;;;;;;;5051334;28;20450;-79
2023/10/20 08:17:55;;;;;;;7.33;4.10;;;;;;;;;;5053948;28;20492;-80
2023/10/20 08:20:29;;;;;;;8.97;4.10;;;;;;;;;;5051218;28;20448;-80
2023/10/20 08:23:03;;;;;;;5.90;3.47;;;;;;;;;;5049463;28;20513;-79
2023/10/20 08:25:31;;;;;;;8.00;4.43;;;;;;;;;;5053501;28;20531;-80
2023/10/20 08:27:59;;;;;;;8.10;4.23;;;;;;;;;;5041225;28;20443;-79
2023/10/20 08:30:27;;;;;;;8.70;5.73;;;;;;;;;;5039130;28;20513;-78
2023/10/20 08:32:55;;;;;;;10.13;4.83;;;;;;;;;;5041601;28;20489;-77
2023/10/20 08:35:26;;;;;;;8.80;5.60;;;;;;;;;;5037618;28;20454;-78
2023/10/20 08:37:56;;;;;;;10.37;6.10;;;;;;;;;;5042236;28;20490;-79
2023/10/20 08:40:26;;;;;;;9.80;5.83;;;;;;;;;;5043053;28;20438;-79
2023/10/20 08:43:02;;;;;;;8.77;4.90;;;;;;;;;;5056321;28;20461;-77
2023/10/20 08:45:39;;;;;;;8.93;5.27;;;;;;;;;;5061731;28;20453;-78
2023/10/20 08:48:08;;;;;;;11.03;5.00;;;;;;;;;;5068728;28;20445;-80
2023/10/20 08:50:36;;;;;;;11.13;6.13;;;;;;;;;;5070800;28;20534;-77
2023/10/20 08:53:08;;;;;;;12.03;5.93;;;;;;;;;;5068620;28;20794;-79
2023/10/20 08:55:36;;;;;;;9.10;5.50;;;;;;;;;;5056521;28;20446;-77
2023/10/20 08:58:06;;;;;;;8.37;5.13;;;;;;;;;;5055019;28;20583;-78
2023/10/20 09:00:33;;;;;;;7.77;4.73;;;;;;;;;;5053422;28;20453;-77
2023/10/20 09:03:02;;;;;;;9.80;4.83;;;;;;;;;;5051923;28;20900;-77
2023/10/20 09:05:30;;;;;;;8.30;5.70;;;;;;;;;;5047414;28;20461;-79
2023/10/20 09:08:02;;;;;;;7.10;4.90;;;;;;;;;;5046716;28;20450;-78
2023/10/20 09:10:32;;;;;;;9.27;6.33;;;;;;;;;;5046533;28;20564;-78
2023/10/20 09:13:00;;;;;;;10.20;6.70;;;;;;;;;;5057943;28;20453;-78
2023/10/20 09:15:30;;;;;;;10.60;6.00;;;;;;;;;;5066865;28;20462;-79
2023/10/20 09:17:58;;;;;;;9.67;5.27;;;;;;;;;;5061795;28;20481;-79
2023/10/20 09:20:26;;;;;;;8.90;5.60;;;;;;;;;;5064040;28;20445;-81
2023/10/20 09:22:54;;;;;;;9.50;5.60;;;;;;;;;;5060413;28;20530;-79
2023/10/20 09:25:24;;;;;;;10.50;5.40;;;;;;;;;;5042118;28;20454;-78
2023/10/20 09:27:55;;;;;;;8.60;5.60;;;;;;;;;;5049113;28;20468;-78
2023/10/20 09:30:24;;;;;;;11.67;5.90;;;;;;;;;;5059833;28;20940;-80
2023/10/20 09:32:51;;;;;;;9.17;5.70;;;;;;;;;;5044716;28;20483;-79
2023/10/20 09:35:25;;;;;;;8.60;5.33;;;;;;;;;;5041512;28;20548;-78
2023/10/20 09:37:55;;;;;;;9.90;6.23;;;;;;;;;;5058683;28;20509;-78
2023/10/20 09:40:24;;;;;;;10.13;5.50;;;;;;;;;;5049851;28;20466;-80
2023/10/20 09:42:57;;;;;;;9.30;5.03;;;;;;;;;;5077609;28;20538;-77
2023/10/20 09:45:32;;;;;;;7.10;4.90;;;;;;;;;;5059359;28;20540;-80
2023/10/20 09:48:02;;;;;;;10.30;5.70;;;;;;;;;;5065055;28;20449;-78
2023/10/20 09:50:31;;;;;;;8.50;5.33;;;;;;;;;;5059755;28;20949;-80
2023/10/20 09:52:59;;;;;;;8.83;6.13;;;;;;;;;;5047759;28;20480;-79
2023/10/20 09:55:28;;;;;;;10.63;5.77;;;;;;;;;;5040128;28;20457;-79
2023/10/20 09:58:01;;;;;;;8.33;5.27;;;;;;;;;;5060825;28;20477;-79
2023/10/20 10:00:33;;;;;;;9.63;5.73;;;;;;;;;;5049147;28;20457;-79
2023/10/20 10:03:00;;;;;;;8.00;4.50;;;;;;;;;;5069499;28;20454;-79
2023/10/20 10:05:28;;;;;;;8.13;6.10;;;;;;;;;;5066170;28;20457;-80
2023/10/20 10:08:07;;;;;;;8.87;5.57;;;;;;;;;;5060464;28;21063;-79
2023/10/20 10:10:35;;;;;;;9.43;6.07;;;;;;;;;;5061935;28;20990;-79
2023/10/20 10:13:06;;;;;;;11.60;6.33;;;;;;;;;;5048461;28;20454;-79
2023/10/20 10:15:39;;;;;;;8.50;5.00;;;;;;;;;;5047631;28;20458;-80
2023/10/20 10:18:11;;;;;;;8.90;5.23;;;;;;;;;;5044457;28;20482;-79
2023/10/20 10:20:45;;;;;;;11.23;7.33;;;;;;;;;;5050032;28;20466;-80
2023/10/20 10:23:14;;;;;;;6.27;4.07;;;;;;;;;;5045386;28;20461;-79
2023/10/20 10:25:44;;;;;;;9.03;5.20;;;;;;;;;;5044615;28;20431;-78
2023/10/20 10:28:14;;;;;;;10.87;5.57;;;;;;;;;;5047495;28;20454;-77
2023/10/20 10:30:42;;;;;;;7.77;4.93;;;;;;;;;;5068367;28;20561;-80
2023/10/20 10:33:09;;;;;;;8.00;5.23;;;;;;;;;;5066974;28;20465;-78
2023/10/20 10:35:38;;;;;;;7.10;4.70;;;;;;;;;;5070170;28;20464;-78
2023/10/20 10:38:09;;;;;;;10.37;5.77;;;;;;;;;;5069055;28;20481;-81
2023/10/20 10:40:45;;;;;;;8.40;4.80;;;;;;;;;;5067979;28;20442;-83
2023/10/20 10:43:17;;;;;;;7.40;4.70;;;;;;;;;;5064670;28;20511;-80
2023/10/20 10:45:45;;;;;;;11.90;6.10;;;;;;;;;;5064083;28;20461;-79
2023/10/20 10:48:14;;;;;;;8.87;5.37;;;;;;;;;;5067467;28;20453;-79
2023/10/20 10:50:43;;;;;;;9.10;5.90;;;;;;;;;;5066363;28;20487;-79
2023/10/20 10:53:11;;;;;;;8.90;5.10;;;;;;;;;;5062917;28;20533;-79
2023/10/20 10:55:40;;;;;;;9.10;4.93;;;;;;;;;;5052692;28;20482;-79
2023/10/20 10:58:08;;;;;;;8.60;4.80;;;;;;;;;;5058548;28;20937;-79
2023/10/20 11:00:39;;;;;;;7.57;4.00;;;;;;;;;;5076687;28;20520;-80
2023/10/20 11:03:06;;;;;;;7.67;5.20;;;;;;;;;;5055972;28;20460;-78
2023/10/20 11:05:34;;;;;;;9.43;5.50;;;;;;;;;;5057456;28;20530;-80
2023/10/20 11:08:03;;;;;;;8.00;4.43;;;;;;;;;;5047717;28;20560;-80
2023/10/20 11:10:30;;;;;;;8.60;3.90;;;;;;;;;;5042707;28;20465;-80
2023/10/20 11:12:58;;;;;;;7.40;4.00;;;;;;;;;;5045177;28;20457;-79
2023/10/20 11:15:30;;;;;;;6.57;4.13;;;;;;;;;;5057906;28;20492;-81
2023/10/20 11:18:00;;;;;;;8.00;4.50;;;;;;;;;;5046307;28;20462;-79
2023/10/20 11:20:29;;;;;;;6.57;3.77;;;;;;;;;;5046983;28;20466;-79
2023/10/20 11:22:57;;;;;;;10.70;4.43;;;;;;;;;;5036894;28;20454;-79
2023/10/20 11:25:25;;;;;;;9.00;4.57;;;;;;;;;;5055807;28;20524;-79
2023/10/20 11:27:55;;;;;;;8.63;4.90;;;;;;;;;;5049853;28;20510;-81
2023/10/20 11:30:26;;;;;;;6.30;4.40;;;;;;;;;;5050464;28;20512;-80
2023/10/20 11:32:58;;;;;;;13.53;4.47;;;;;;;;;;5048027;28;20462;-80
2023/10/20 11:35:27;;;;;;;6.27;3.97;;;;;;;;;;5055589;28;20478;-79
2023/10/20 11:37:55;;;;;;;7.00;3.97;;;;;;;;;;5052631;28;20514;-79
2023/10/20 11:40:23;;;;;;;5.70;3.43;;;;;;;;;;5051417;28;20477;-81
2023/10/20 11:42:51;;;;;;;6.07;4.03;;;;;;;;;;5043406;28;20496;-79
2023/10/20 11:45:21;;;;;;;6.00;3.27;;;;;;;;;;5058886;28;20542;-79
2023/10/20 11:47:55;;;;;;;6.40;3.73;;;;;;;;;;5053511;28;20496;-79
2023/10/20 11:50:23;;;;;;;6.93;4.53;;;;;;;;;;5045287;28;20463;-79
2023/10/20 11:52:53;;;;;;;6.67;3.23;;;;;;;;;;5046244;28;20459;-79
2023/10/20 11:55:22;;;;;;;12.63;6.40;;;;;;;;;;5064636;28;20533;-79
2023/10/20 11:57:50;;;;;;;7.30;3.47;;;;;;;;;;5059737;28;20464;-80
2023/10/20 12:00:19;;;;;;;5.57;2.93;;;;;;;;;;5073626;28;20476;-80
2023/10/20 12:03:04;;;;;;;8.33;3.67;;;;;;;;;;5056806;28;20496;-80
2023/10/20 12:08:33;;;;;;;8.10;3.47;;;;;;;;;;5056869;28;20778;-77
2023/10/20 12:11:03;;;;;;;6.23;3.93;;;;;;;;;;5057482;28;20557;-80
2023/10/20 12:13:31;;;;;;;6.50;2.80;;;;;;;;;;5052295;28;20741;-78
2023/10/20 12:16:01;;;;;;;6.60;4.00;;;;;;;;;;5041222;28;20487;-80
2023/10/20 12:18:34;;;;;;;7.30;3.80;;;;;;;;;;5042198;28;20470;-78
2023/10/20 12:21:07;;;;;;;6.40;3.60;;;;;;;;;;5051979;28;20470;-78
2023/10/20 12:23:38;;;;;;;6.13;2.63;;;;;;;;;;5042561;28;20473;-78
2023/10/20 12:26:06;;;;;;;7.60;3.97;;;;;;;;;;5045117;28;20449;-79
2023/10/20 12:28:34;;;;;;;5.50;3.33;;;;;;;;;;5061048;28;20630;-81
2023/10/20 12:31:01;;;;;;;4.27;2.40;;;;;;;;;;5032642;28;20478;-81
2023/10/20 12:33:33;;;;;;;7.50;3.10;;;;;;;;;;5034013;28;20570;-79
2023/10/20 12:36:01;;;;;;;5.23;2.83;;;;;;;;;;5031908;28;20570;-80
2023/10/20 12:38:29;;;;;;;6.50;3.63;;;;;;;;;;5041147;28;20489;-80
2023/10/20 12:40:58;;;;;;;4.93;2.67;;;;;;;;;;5039993;28;21113;-79
2023/10/20 12:43:26;;;;;;;5.47;3.03;;;;;;;;;;5021446;28;20446;-80
2023/10/20 12:45:53;;;;;;;5.83;3.17;;;;;;;;;;5015356;28;20538;-81
2023/10/20 12:48:24;;;;;;;6.10;3.30;;;;;;;;;;5025826;28;20716;-80
2023/10/20 12:50:53;;;;;;;5.60;3.47;;;;;;;;;;5026405;28;20473;-81
2023/10/20 12:53:27;;;;;;;4.73;3.13;;;;;;;;;;5036629;28;20458;-80
2023/10/20 12:56:07;;;;;;;6.20;3.10;;;;;;;;;;5041097;28;20998;-80
2023/10/20 12:58:35;;;;;;;6.63;3.63;;;;;;;;;;5026269;28;20447;-79
2023/10/20 13:01:03;;;;;;;5.87;3.00;;;;;;;;;;5031736;28;20786;-80
2023/10/20 13:03:31;;;;;;;9.47;4.87;;;;;;;;;;5037507;28;20435;-80
2023/10/20 13:05:59;;;;;;;5.33;3.13;;;;;;;;;;5037188;28;20465;-79
2023/10/20 13:08:27;;;;;;;5.97;3.73;;;;;;;;;;5036857;28;20462;-80
2023/10/20 13:10:59;;;;;;;6.67;3.03;;;;;;;;;;5031481;28;20459;-79
2023/10/20 13:13:28;;;;;;;6.17;3.10;;;;;;;;;;5035331;28;20442;-78
2023/10/20 13:15:56;;;;;;;5.30;2.93;;;;;;;;;;5038909;28;20498;-80
2023/10/20 13:18:26;;;;;;;5.10;3.20;;;;;;;;;;5034598;28;20467;-80
2023/10/20 13:20:56;;;;;;;4.77;2.70;;;;;;;;;;5035124;28;20493;-80
2023/10/20 13:23:24;;;;;;;5.30;2.60;;;;;;;;;;5042151;28;20451;-79
2023/10/20 13:26:00;;;;;;;5.10;2.83;;;;;;;;;;5031450;28;20465;-79
2023/10/20 13:28:29;;;;;;;5.03;2.50;;;;;;;;;;5024291;28;20441;-82
2023/10/20 13:31:06;;;;;;;4.50;2.57;;;;;;;;;;5066645;28;20457;-82
2023/10/20 13:33:34;;;;;;;5.00;2.70;;;;;;;;;;5062596;28;20468;-82
2023/10/20 13:36:02;;;;;;;4.90;3.00;;;;;;;;;;5060689;28;20734;-79
2023/10/20 13:38:31;;;;;;;5.37;2.60;;;;;;;;;;5066028;28;20453;-83
2023/10/20 13:40:59;;;;;;;4.43;2.17;;;;;;;;;;5066652;28;20692;-81
2023/10/20 13:43:36;;;;;;;5.30;2.90;;;;;;;;;;5053237;28;20454;-80
2023/10/20 13:46:04;;;;;;;4.07;2.27;;;;;;;;;;5041780;28;20465;-80
2023/10/20 13:48:32;;;;;;;4.23;2.10;;;;;;;;;;5044044;28;20505;-79
2023/10/20 13:51:00;;;;;;;4.47;2.50;;;;;;;;;;5044965;28;20453;-81
2023/10/20 13:53:28;;;;;;;6.63;3.10;;;;;;;;;;5043750;28;20442;-80
2023/10/20 13:56:01;;;;;;;3.97;2.33;;;;;;;;;;5057910;28;20480;-79
2023/10/20 13:58:37;;;;;;;4.57;2.17;;;;;;;;;;5053274;28;20510;-80
2023/10/20 14:01:20;;;;;;;3.53;1.73;;;;;;;;;;5058594;28;20481;-81
2023/10/20 14:04:15;;;;;;;4.30;1.63;;;;;;;;;;5059947;28;20469;-81
2023/10/20 14:06:45;;;;;;;3.33;1.80;;;;;;;;;;5042829;28;20461;-77
2023/10/20 14:09:17;;;;;;;4.00;1.83;;;;;;;;;;5045153;28;20982;-78
2023/10/20 14:11:52;;;;;;;4.73;2.40;;;;;;;;;;5054113;28;20473;-80
2023/10/20 14:17:11;;;;;;;4.57;1.90;;;;;;;;;;5063940;28;20441;-79
2023/10/20 14:19:45;;;;;;;3.07;1.67;;;;;;;;;;5059295;28;20508;-81
2023/10/20 14:22:31;;;;;;;3.40;1.80;;;;;;;;;;5052229;28;20868;-81
2023/10/20 14:25:14;;;;;;;3.00;1.40;;;;;;;;;;5051413;28;20495;-80
2023/10/20 14:27:41;;;;;;;3.20;1.60;;;;;;;;;;5069623;28;20460;-79
2023/10/20 14:30:16;;;;;;;3.10;1.93;;;;;;;;;;5069038;28;20512;-81
2023/10/20 14:32:47;;;;;;;2.97;1.70;;;;;;;;;;5064616;28;20471;-79
2023/10/20 14:35:20;;;;;;;3.17;1.93;;;;;;;;;;5053594;28;20573;-81
2023/10/20 14:37:49;;;;;;;2.63;1.40;;;;;;;;;;5046551;28;20446;-83
2023/10/20 14:40:21;;;;;;;4.20;2.13;;;;;;;;;;5062271;28;20507;-79
2023/10/20 14:42:53;;;;;;;4.07;1.77;;;;;;;;;;5067353;28;20471;-79
2023/10/20 14:45:23;;;;;;;4.07;1.80;;;;;;;;;;5047234;28;20465;-80
2023/10/20 14:48:03;;;;;;;4.63;1.70;;;;;;;;;;5058971;28;20560;-79
2023/10/20 14:50:47;;;;;;;3.20;1.50;;;;;;;;;;5050968;28;20450;-81
2023/10/20 14:53:39;;;;;;;3.53;1.90;;;;;;;;;;5049535;28;20512;-82
2023/10/20 14:56:17;;;;;;;2.70;1.37;;;;;;;;;;5049096;28;20430;-81
2023/10/20 14:58:56;;;;;;;3.67;1.73;;;;;;;;;;5061396;28;20458;-79
2023/10/20 15:01:29;;;;;;;3.90;1.60;;;;;;;;;;5058196;28;20447;-79
2023/10/20 15:03:58;;;;;;;2.87;1.40;;;;;;;;;;5048965;28;20460;-79
2023/10/20 15:06:28;;;;;;;3.43;1.83;;;;;;;;;;5044606;28;20644;-80
2023/10/20 15:08:58;;;;;;;6.50;2.40;;;;;;;;;;5063026;28;20450;-79
2023/10/20 15:11:32;;;;;;;3.60;1.73;;;;;;;;;;5065308;28;20456;-79
2023/10/20 15:14:04;;;;;;;3.57;1.60;;;;;;;;;;5062454;28;20451;-81
2023/10/20 15:16:36;;;;;;;4.13;1.57;;;;;;;;;;5047505;28;20459;-78
2023/10/20 15:19:08;;;;;;;3.53;1.50;;;;;;;;;;5044145;28;20507;-79
2023/10/20 15:21:40;;;;;;;3.30;1.00;;;;;;;;;;5045961;28;20489;-79
2023/10/20 15:24:09;;;;;;;3.10;1.20;;;;;;;;;;5046979;28;20438;-79
2023/10/20 15:26:50;;;;;;;2.53;1.20;;;;;;;;;;5040897;28;20818;-80
2023/10/20 15:29:29;;;;;;;3.10;1.80;;;;;;;;;;5066573;28;21021;-81
2023/10/20 15:31:58;;;;;;;3.20;2.00;;;;;;;;;;5060737;28;20453;-78